Date,TemperatureHighF,TemperatureAvgF,TemperatureLowF,DewpointHighF,DewpointAvgF,DewpointLowF,HumidityHigh,HumidityAvg,HumidityLow,PressureMaxIn,PressureMinIn,WindSpeedMaxMPH,WindSpeedAvgMPH,GustSpeedMaxMPH,PrecipitationSumIn
2013-1-1,43.0,37.9,34.0,42.0,32.9,-99.9,100,96,84,30.51,30.37,0,-999,0,0.00
2013-1-2,47.0,36.7,33.0,38.0,34.4,32.0,99,91,73,30.38,30.21,0,-999,0,0.00
2013-1-3,44.0,37.9,31.0,39.0,2.3,-99.9,101,85,62,30.22,30.09,0,-999,0,0.00
2013-1-4,45.0,43.4,42.0,45.0,42.4,38.0,99,96,88,30.30,30.11,0,-999,0,0.00
2013-1-5,46.0,43.8,41.0,44.0,15.2,-99.9,100,94,82,30.19,30.07,0,-999,0,0.00
2013-1-6,45.0,43.4,40.0,44.0,42.0,39.0,97,94,90,30.14,29.93,0,-999,0,0.00
2013-1-7,49.0,45.0,41.0,49.0,31.5,-99.9,100,95,83,30.12,29.78,0,-999,0,0.00
2013-1-8,49.0,44.6,42.0,47.0,11.6,-99.9,101,97,94,30.14,29.64,0,-999,0,0.00
2013-1-9,48.0,43.3,40.0,46.0,31.9,-99.9,101,89,78,29.92,29.63,0,-999,0,0.00
2013-1-10,42.0,38.0,32.0,39.0,35.6,29.0,97,91,79,30.14,29.92,0,-999,0,0.00
2013-1-11,38.0,34.0,30.0,30.0,25.4,22.0,90,71,51,30.33,30.14,0,-999,0,0.00
2013-1-12,37.0,31.8,28.0,35.0,26.5,-99.9,99,88,61,30.45,30.32,0,-999,0,0.00
2013-1-13,37.0,33.6,29.0,34.0,30.7,28.0,98,89,76,30.50,30.44,0,-999,0,0.00
2013-1-14,38.0,37.4,37.0,37.0,35.0,31.0,95,90,79,30.58,30.46,0,-999,0,0.00
2013-1-15,42.0,38.9,36.0,40.0,36.5,35.0,99,91,80,30.71,30.57,0,-999,0,0.00
2013-1-16,46.0,39.8,36.0,38.0,35.5,34.0,90,84,71,30.69,30.54,0,-999,0,0.00
2013-1-17,47.0,38.2,34.0,41.0,35.9,33.0,99,91,76,30.54,30.30,0,-999,0,0.00
2013-1-18,43.0,38.2,36.0,43.0,-30.0,-99.9,101,98,92,30.35,30.27,0,-999,0,0.00
2013-1-19,43.0,39.2,37.0,41.0,38.1,37.0,99,95,87,30.40,30.35,0,-999,0,0.00
2013-1-20,47.0,39.9,37.0,44.0,-7.7,-99.9,101,96,80,30.40,30.28,0,-999,0,0.00
2013-1-21,45.0,38.8,35.0,44.0,-31.0,-99.9,101,97,86,30.28,30.14,0,-999,0,0.00
2013-1-22,41.0,37.8,35.0,39.0,36.7,34.0,98,95,90,30.16,29.92,0,-999,0,0.00
2013-1-23,44.0,42.0,39.0,44.0,41.4,38.0,100,97,95,30.09,29.81,0,-999,0,0.00
2013-1-24,45.0,42.9,39.0,43.0,40.4,37.0,97,90,83,30.19,29.99,0,-999,0,0.00
2013-1-25,50.0,44.0,38.0,48.0,42.4,38.0,99,94,85,30.04,29.88,0,-999,0,0.00
2013-1-26,45.0,42.7,40.0,44.0,25.8,-99.9,101,96,88,30.01,29.83,0,-999,0,0.00
2013-1-27,42.0,40.8,38.0,42.0,-63.0,-99.9,102,101,99,30.02,29.96,0,-999,0,0.00
2013-1-28,44.0,40.4,37.0,42.0,-61.1,-99.9,102,101,98,30.04,29.96,0,-999,0,0.00
2013-1-29,48.0,43.7,41.0,47.0,1.3,-99.9,100,98,93,30.31,30.04,0,-999,0,0.00
2013-1-30,49.0,45.8,45.0,45.0,-83.9,-99.9,102,101,97,30.36,30.30,0,-999,0,0.00
2013-1-31,47.0,46.2,44.0,-99.9,-99.9,-99.9,103,102,100,30.35,30.28,0,-999,0,0.00
2013-2-1,49.0,44.3,40.0,49.0,-45.5,-99.9,103,100,94,30.43,30.32,0,-999,0,0.00
2013-2-2,49.0,43.8,41.0,46.0,-14.6,-99.9,101,95,81,30.41,30.25,0,-999,0,0.00
2013-2-3,45.0,43.4,42.0,45.0,-0.5,-99.9,101,98,94,30.30,30.18,0,-999,0,0.00
2013-2-4,47.0,45.0,43.0,46.0,-24.9,-99.9,101,97,89,30.19,29.83,0,-999,0,0.00
2013-2-5,48.0,45.3,42.0,45.0,43.7,42.0,99,93,86,29.89,29.76,0,-999,0,0.00
2013-2-6,49.0,45.4,43.0,44.0,42.8,40.0,97,90,72,29.99,29.73,0,-999,0,0.00
2013-2-7,49.0,43.4,36.0,42.0,39.1,36.0,97,84,71,30.20,29.73,0,-999,0,0.00
2013-2-8,46.0,40.5,36.0,44.0,20.7,-99.9,100,93,81,30.30,30.19,0,-999,0,0.00
2013-2-9,44.0,41.7,39.0,42.0,40.6,38.0,98,96,90,30.35,30.26,0,-999,0,0.00
2013-2-10,45.0,40.6,35.0,44.0,-10.2,-99.9,101,95,83,30.38,30.32,0,-999,0,0.00
2013-2-11,45.0,43.3,41.0,44.0,-3.4,-99.9,101,97,93,30.33,30.31,0,-999,0,0.00
2013-2-12,49.0,46.1,45.0,46.0,15.7,-99.9,101,97,85,30.39,30.23,0,-999,0,0.00
2013-2-13,50.0,46.1,44.0,44.0,41.0,39.0,90,82,70,30.48,30.26,0,-999,0,0.00
2013-2-14,45.0,44.2,43.0,45.0,-37.0,-99.9,102,97,82,30.57,30.47,0,-999,0,0.00
2013-2-15,52.0,45.6,42.0,50.0,-34.2,-99.9,103,97,77,30.57,30.18,0,-999,0,0.00
2013-2-16,50.0,45.3,42.0,48.0,5.7,-99.9,101,89,70,30.18,30.09,0,-999,0,0.00
2013-2-17,46.0,42.8,39.0,42.0,39.6,37.0,96,89,74,30.23,30.11,0,-999,0,0.00
2013-2-18,45.0,42.8,39.0,41.0,39.7,38.0,97,88,78,30.11,29.74,0,-999,0,0.00
2013-2-19,48.0,43.4,36.0,41.0,37.9,35.0,96,81,68,30.00,29.74,0,-999,0,0.00
2013-2-20,44.0,40.6,34.0,44.0,-1.8,-99.9,101,96,90,30.02,29.98,0,-999,0,0.00
2013-2-21,46.0,43.4,42.0,42.0,40.7,39.0,94,90,85,30.03,29.98,0,-999,0,0.00
2013-2-22,49.0,43.1,40.0,47.0,40.5,35.0,98,91,71,30.02,29.62,0,-999,0,0.00
2013-2-23,50.0,44.1,40.0,40.0,37.8,36.0,90,78,62,30.33,29.82,0,-999,0,0.00
2013-2-24,46.0,44.1,42.0,41.0,39.7,37.0,91,84,77,30.35,29.85,0,-999,0,0.00
2013-2-25,49.0,44.8,41.0,42.0,37.6,34.0,92,76,56,30.27,29.81,0,-999,0,0.00
2013-2-26,46.0,43.2,40.0,40.0,38.5,37.0,89,83,72,30.32,30.14,0,-999,0,0.00
2013-2-27,47.0,43.4,39.0,43.0,40.1,37.0,95,88,76,30.31,30.17,0,-999,0,0.00
2013-2-28,49.0,44.7,41.0,47.0,-1.0,-99.9,101,97,92,30.28,30.18,0,-999,0,0.00
2013-3-1,55.0,50.2,46.0,52.0,-21.8,-99.9,102,97,86,30.27,30.22,0,-999,0,0.00
2013-3-2,51.0,46.2,39.0,49.0,-55.3,-99.9,103,97,80,30.24,30.03,0,-999,0,0.00
2013-3-3,48.0,40.8,35.0,40.0,35.9,33.0,96,83,60,30.31,30.16,0,-999,0,0.00
2013-3-4,49.0,40.8,34.0,43.0,8.3,-99.9,101,87,64,30.31,29.96,0,-999,0,0.00
2013-3-5,49.0,43.6,38.0,41.0,36.2,32.0,98,76,58,29.96,29.76,0,-999,0,0.00
2013-3-6,43.0,42.2,41.0,42.0,41.4,40.0,100,97,94,29.87,29.62,0,-999,0,0.00
2013-3-7,46.0,42.4,38.0,46.0,-11.3,-99.9,101,98,92,30.11,29.87,0,-999,0,0.00
2013-3-8,50.0,43.0,37.0,47.0,-28.8,-99.9,102,94,73,30.24,30.09,0,-999,0,0.00
2013-3-9,52.0,42.1,35.0,47.0,-10.0,-99.9,102,93,70,30.49,30.24,0,-999,0,0.00
2013-3-10,46.0,43.5,40.0,44.0,33.1,-99.9,100,96,89,30.48,30.43,0,-999,0,0.00
2013-3-11,52.0,45.6,41.0,45.0,42.4,40.0,98,88,70,30.44,30.11,0,-999,0,0.00
2013-3-12,52.0,48.8,46.0,49.0,-4.8,-99.9,101,99,96,30.12,29.98,0,-999,0,0.00
2013-3-13,51.0,49.8,49.0,50.0,-3.3,-99.9,101,99,98,30.15,30.04,0,-999,0,0.00
2013-3-14,51.0,48.4,47.0,50.0,-41.2,-99.9,101,99,91,30.12,30.00,0,-999,0,0.00
2013-3-15,57.0,49.5,46.0,53.0,-28.7,-99.9,101,97,81,30.20,30.11,0,-999,0,0.00
2013-3-16,49.0,45.0,40.0,47.0,-18.9,-99.9,101,91,69,30.11,29.84,0,-999,0,0.00
2013-3-17,47.0,41.7,35.0,38.0,34.7,30.0,92,76,52,30.14,29.92,0,-999,0,0.00
2013-3-18,50.0,43.8,37.0,40.0,35.0,28.0,94,72,52,30.24,30.05,0,-999,0,0.00
2013-3-19,50.0,43.0,36.0,42.0,37.0,31.0,92,79,60,30.24,29.53,0,-999,0,0.00
2013-3-20,52.0,47.0,40.0,49.0,41.6,33.0,95,82,62,29.96,29.28,0,-999,0,0.00
2013-3-21,45.0,40.8,36.0,38.0,35.6,32.0,88,81,73,30.20,29.94,0,-999,0,0.00
2013-3-22,46.0,39.2,33.0,37.0,31.7,29.0,91,75,56,30.37,30.19,0,-999,0,0.00
2013-3-23,49.0,41.3,34.0,38.0,34.4,30.0,94,77,52,30.40,30.31,0,-999,0,0.00
2013-3-24,51.0,42.4,35.0,38.0,34.5,32.0,91,74,51,30.32,30.14,0,-999,0,0.00
2013-3-25,57.0,46.4,38.0,43.0,37.4,34.0,91,72,47,30.14,29.96,0,-999,0,0.00
2013-3-26,55.0,46.7,41.0,44.0,40.1,35.0,91,78,61,30.03,29.98,0,-999,0,0.00
2013-3-27,57.0,47.3,40.0,50.0,42.7,39.0,97,85,62,30.01,29.96,0,-999,0,0.00
2013-3-28,59.0,47.7,40.0,51.0,44.3,40.0,100,88,66,30.15,30.00,0,-999,0,0.00
2013-3-29,56.0,47.4,43.0,51.0,-0.7,-99.9,101,94,73,30.27,30.14,0,-999,0,0.00
2013-3-30,61.0,49.6,39.0,53.0,5.1,-99.9,101,82,59,30.28,30.10,0,-999,0,0.00
2013-3-31,63.0,53.3,44.0,48.0,43.9,39.0,90,71,46,30.11,29.92,0,-999,0,0.00
2013-4-1,54.0,48.6,44.0,50.0,46.0,41.0,98,90,81,30.12,29.96,0,-999,0,0.00
2013-4-2,53.0,49.3,47.0,48.0,45.3,43.0,94,86,73,30.20,30.12,0,-999,0,0.00
2013-4-3,59.0,51.4,47.0,49.0,46.8,44.0,96,84,68,30.19,29.96,0,-999,0,0.00
2013-4-4,53.0,50.3,49.0,50.0,11.8,-99.9,101,92,77,29.98,29.57,0,-999,0,0.00
2013-4-5,58.0,50.3,48.0,53.0,-0.2,-99.9,101,95,81,29.82,29.63,0,-999,0,0.00
2013-4-6,55.0,49.9,45.0,48.0,43.9,40.0,96,80,61,29.88,29.62,0,-999,0,0.00
2013-4-7,50.0,45.4,43.0,47.0,44.1,41.0,99,95,82,29.86,29.57,0,-999,0,0.00
2013-4-8,54.0,47.8,44.0,47.0,44.9,42.0,98,90,72,30.25,29.85,0,-999,0,0.00
2013-4-9,52.0,47.5,43.0,46.0,44.9,42.0,98,91,75,30.33,30.13,0,-999,0,0.00
2013-4-10,53.0,50.0,47.0,49.0,45.2,42.0,97,84,74,30.21,29.87,0,-999,0,0.00
2013-4-11,52.0,47.3,42.0,43.0,40.1,35.0,90,76,59,30.29,30.17,0,-999,0,0.00
2013-4-12,45.0,42.9,40.0,43.0,39.8,35.0,95,88,73,30.19,29.66,0,-999,0,0.00
2013-4-13,49.0,42.8,38.0,43.0,38.6,33.0,95,85,75,29.98,29.67,0,-999,0,0.00
2013-4-14,51.0,43.3,38.0,45.0,24.7,-99.9,100,88,61,30.00,29.93,0,-999,0,0.00
2013-4-15,46.0,41.5,39.0,42.0,39.6,37.0,98,92,76,30.18,29.93,0,-999,0,0.00
2013-4-16,60.0,48.8,39.0,48.0,26.1,-99.9,98,68,32,30.39,30.18,0,-999,0,0.00
2013-4-17,54.0,47.8,41.0,46.0,40.8,33.0,92,77,59,30.44,30.38,0,-999,0,0.00
2013-4-18,49.0,46.4,44.0,49.0,44.6,39.0,98,93,74,30.44,30.17,0,-999,0,0.00
2013-4-19,53.0,49.4,48.0,50.0,-43.5,-99.9,102,100,90,30.18,30.06,0,-999,0,0.00
2013-4-20,56.0,50.7,47.0,47.0,44.6,41.0,91,79,63,30.24,30.14,0,-999,0,0.00
2013-4-21,51.0,47.0,43.0,43.0,41.3,38.0,92,80,63,30.39,30.22,0,-999,0,0.00
2013-4-22,60.0,49.6,41.0,41.0,36.5,28.0,93,64,29,30.56,30.38,0,-999,0,0.00
2013-4-23,58.0,47.7,38.0,45.0,38.9,32.0,92,72,53,30.44,30.27,0,-999,0,0.00
2013-4-24,63.0,50.2,40.0,49.0,41.7,38.0,95,74,46,30.33,30.06,0,-999,0,0.00
2013-4-25,65.0,51.8,42.0,52.0,45.4,40.0,96,80,55,30.13,30.05,0,-999,0,0.00
2013-4-26,59.0,50.0,44.0,51.0,45.6,43.0,97,85,61,30.26,30.13,0,-999,0,0.00
2013-4-27,53.0,50.0,47.0,49.0,47.2,45.0,96,90,81,30.20,30.12,0,-999,0,0.00
2013-4-28,53.0,48.6,42.0,46.0,42.4,39.0,95,79,63,30.19,29.91,0,-999,0,0.00
2013-4-29,53.0,47.5,43.0,45.0,38.4,35.0,96,71,53,30.14,29.91,0,-999,0,0.00
2013-4-30,53.0,46.6,41.0,38.0,35.9,33.0,80,66,53,30.44,30.14,0,-999,0,0.00
2013-5-1,61.0,48.3,38.0,46.0,38.1,30.0,96,70,37,30.60,30.43,0,-999,0,0.00
2013-5-2,60.0,51.8,41.0,48.0,40.8,35.0,86,67,49,30.57,30.40,0,-999,0,0.00
2013-5-3,65.0,56.5,47.0,51.0,46.4,40.0,85,69,50,30.42,30.24,0,-999,0,0.00
2013-5-4,69.0,58.5,47.0,51.0,47.9,42.0,84,68,44,30.27,30.17,0,-999,0,0.00
2013-5-6,74.0,61.7,51.0,50.0,48.3,46.0,89,64,41,29.83,29.77,0,-999,0,0.00
2013-5-7,59.0,52.1,47.0,53.0,49.7,47.0,99,91,78,29.97,29.80,0,-999,0,0.00
2013-5-8,57.0,52.5,49.0,52.0,49.8,47.0,96,90,80,30.15,29.97,0,-999,0,0.00
2013-5-9,61.0,52.1,47.0,53.0,27.3,-99.9,100,91,73,30.22,30.12,0,-999,0,0.00
2013-5-10,63.0,52.7,47.0,58.0,9.6,-99.9,101,91,70,30.22,30.13,0,-999,0,0.00
2013-5-11,67.0,54.5,49.0,55.0,49.9,47.0,97,85,63,30.17,30.00,0,-999,0,0.00
2013-5-12,60.0,55.3,51.0,53.0,-72.1,-99.9,102,101,94,30.07,29.99,0,-999,0,0.00
2013-5-13,59.0,53.3,49.0,58.0,-28.3,-99.9,102,94,77,30.17,29.90,0,-999,0,0.00
2013-5-14,60.0,52.8,48.0,51.0,45.3,40.0,95,76,51,30.23,30.13,0,-999,0,0.00
2013-5-15,61.0,52.4,47.0,52.0,47.5,45.0,97,84,63,30.13,30.02,0,-999,0,0.00
2013-5-16,62.0,54.8,50.0,58.0,4.3,-99.9,101,91,69,30.02,29.89,0,-999,0,0.00
2013-5-17,56.0,52.2,49.0,54.0,12.6,-99.9,101,96,84,30.04,29.93,0,-999,0,0.00
2013-5-18,56.0,52.7,50.0,56.0,-25.5,-99.9,102,96,80,30.27,30.04,0,-999,0,0.00
2013-5-19,63.0,54.3,48.0,54.0,33.3,-99.9,100,84,63,30.40,30.26,0,-999,0,0.00
2013-5-20,59.0,52.0,45.0,52.0,48.5,45.0,99,88,71,30.35,29.93,0,-999,0,0.00
2013-5-21,53.0,49.1,46.0,50.0,6.7,-99.9,101,93,75,29.94,29.80,0,-999,0,0.00
2013-5-22,58.0,50.8,46.0,50.0,46.9,44.0,97,87,72,29.96,29.83,0,-999,0,0.00
2013-5-23,58.0,50.6,46.0,50.0,24.8,-99.9,100,87,65,29.99,29.92,0,-999,0,0.00
2013-5-24,60.0,53.1,46.0,52.0,46.9,44.0,95,80,62,30.03,29.97,0,-999,0,0.00
2013-5-25,61.0,53.8,49.0,52.0,48.2,45.0,96,82,62,30.04,29.99,0,-999,0,0.00
2013-5-26,59.0,52.2,49.0,58.0,-9.3,-99.9,101,97,88,30.00,29.93,0,-999,0,0.00
2013-5-27,56.0,52.9,50.0,54.0,39.1,-99.9,100,96,90,29.94,29.68,0,-999,0,0.00
2013-5-28,59.0,53.2,50.0,56.0,0.6,-99.9,102,95,80,29.85,29.73,0,-999,0,0.00
2013-5-29,58.0,52.2,49.0,55.0,-13.7,-99.9,101,93,71,29.95,29.69,0,-999,0,0.00
2013-5-30,59.0,52.9,48.0,53.0,48.8,46.0,94,86,66,30.24,29.94,0,-999,0,0.00
2013-5-31,62.0,54.2,48.0,53.0,49.0,45.0,99,83,59,30.35,30.23,0,-999,0,0.00
2013-6-1,66.0,56.4,48.0,53.0,49.4,45.0,96,78,58,30.26,30.09,0,-999,0,0.00
2013-6-2,67.0,58.1,51.0,53.0,49.6,47.0,91,73,61,30.10,30.05,0,-999,0,0.00
2013-6-3,68.0,56.7,47.0,57.0,51.4,47.0,99,83,64,30.12,30.06,0,-999,0,0.00
2013-6-4,75.0,58.5,48.0,57.0,51.4,48.0,99,79,49,30.15,30.03,0,-999,0,0.00
2013-6-5,69.0,57.8,52.0,59.0,53.2,48.0,97,85,68,30.11,30.03,0,-999,0,0.00
2013-6-6,68.0,57.3,49.0,59.0,48.8,-99.9,100,83,60,30.06,29.99,0,-999,0,0.00
2013-6-7,60.0,55.3,53.0,54.0,50.5,47.0,89,83,73,30.13,30.00,0,-999,0,0.00
2013-6-8,62.0,54.6,48.0,53.0,49.6,46.0,95,84,68,30.16,30.11,0,-999,0,0.00
2013-6-9,63.0,55.6,50.0,53.0,48.7,43.0,95,78,56,30.11,30.02,0,-999,0,0.00
2013-6-10,63.0,55.8,45.0,52.0,47.6,43.0,97,75,61,30.04,29.88,0,-999,0,0.00
2013-6-11,60.0,55.1,50.0,50.0,47.7,45.0,88,76,66,30.09,29.90,0,-999,0,0.00
2013-6-12,63.0,54.4,49.0,55.0,50.2,47.0,99,86,66,30.14,30.09,0,-999,0,0.00
2013-6-13,63.0,56.2,47.0,55.0,50.6,47.0,98,82,62,30.19,30.14,0,-999,0,0.00
2013-6-14,63.0,55.7,51.0,53.0,49.9,47.0,91,81,67,30.23,30.08,0,-999,0,0.00
2013-6-15,70.0,59.8,48.0,57.0,48.6,-99.9,98,77,52,30.09,29.93,0,-999,0,0.00
2013-6-16,66.0,57.7,50.0,57.0,52.3,48.0,95,82,67,30.06,29.98,0,-999,0,0.00
2013-6-17,71.0,60.2,53.0,57.0,52.6,50.0,92,76,59,30.07,29.90,0,-999,0,0.00
2013-6-18,67.0,59.1,53.0,60.0,29.5,-99.9,100,83,58,29.97,29.90,0,-999,0,0.00
2013-6-19,67.0,58.1,50.0,56.0,50.6,47.0,98,78,54,29.97,29.90,0,-999,0,0.00
2013-6-20,58.0,55.2,54.0,53.0,51.0,48.0,94,85,72,29.98,29.91,0,-999,0,0.00
2013-6-22,72.0,64.4,55.0,58.0,50.3,-99.9,99,71,52,30.09,29.88,0,-999,0,0.00
2013-6-23,65.0,60.5,54.0,60.0,56.8,48.0,98,87,77,29.88,29.60,0,-999,0,0.00
2013-6-24,64.0,56.5,53.0,62.0,-33.8,-99.9,103,98,81,29.69,29.55,0,-999,0,0.00
2013-6-25,66.0,57.7,53.0,59.0,22.1,-99.9,101,92,73,29.82,29.66,0,-999,0,0.00
2013-6-26,69.0,59.9,54.0,60.0,56.4,53.0,98,88,70,30.07,29.81,0,-999,0,0.00
2013-6-27,67.0,58.4,53.0,63.0,21.4,-99.9,102,95,81,30.22,30.05,0,-999,0,0.00
2013-6-28,71.0,59.3,51.0,64.0,-25.3,-99.9,103,94,76,30.22,30.07,0,-999,0,0.00
2013-6-29,74.0,61.0,53.0,66.0,14.8,-99.9,102,90,69,30.11,30.00,0,-999,0,0.00
2013-6-30,83.0,65.3,52.0,68.0,58.3,52.0,99,80,48,30.02,29.87,0,-999,0,0.00
2013-7-1,77.0,63.1,57.0,66.0,54.1,-99.9,93,80,61,30.01,29.89,0,-999,0,0.00
2013-7-2,72.0,60.3,54.0,61.0,54.9,50.0,96,82,66,30.10,29.99,0,-999,0,0.00
2013-7-3,70.0,59.9,52.0,57.0,52.6,49.0,96,77,54,30.15,30.03,0,-999,0,0.00
2013-7-4,65.0,58.7,52.0,58.0,53.6,51.0,97,83,68,30.11,30.02,0,-999,0,0.00
2013-7-5,69.0,60.2,51.0,59.0,54.5,51.0,98,82,65,30.03,29.95,0,-999,0,0.00
2013-7-6,76.0,62.3,53.0,60.0,55.2,51.0,96,78,54,29.98,29.87,0,-999,0,0.00
2013-7-7,73.0,62.2,53.0,61.0,55.7,52.0,96,80,57,29.94,29.88,0,-999,0,0.00
2013-7-8,74.0,60.3,54.0,64.0,55.8,52.0,98,86,62,30.10,29.93,0,-999,0,0.00
2013-7-9,72.0,60.3,53.0,62.0,55.7,52.0,99,85,66,30.12,29.98,0,-999,0,0.00
2013-7-10,67.0,59.1,54.0,57.0,53.3,48.0,97,81,61,30.04,29.92,0,-999,0,0.00
2013-7-11,65.0,58.2,52.0,53.0,50.3,47.0,89,75,60,30.07,29.95,0,-999,0,0.00
2013-7-12,65.0,57.8,50.0,57.0,51.0,44.0,97,78,60,30.09,30.01,0,-999,0,0.00
2013-7-13,72.0,59.3,48.0,59.0,50.8,44.0,95,75,45,30.21,30.08,0,-999,0,0.00
2013-7-14,70.0,59.2,50.0,58.0,52.1,48.0,95,78,56,30.14,30.02,0,-999,0,0.00
2013-7-15,78.0,65.8,51.0,58.0,48.8,-99.9,95,64,35,30.07,29.92,0,-999,0,0.00
2013-7-16,81.0,71.8,58.0,57.0,52.9,50.0,75,53,34,29.92,29.81,0,-999,0,0.00
2013-7-17,69.0,64.4,60.0,59.0,56.1,53.0,84,74,67,30.18,29.86,0,-999,0,0.00
2013-7-18,70.0,61.0,54.0,59.0,55.4,52.0,96,82,67,30.23,30.12,0,-999,0,0.00
2013-7-19,72.0,59.6,54.0,62.0,10.3,-99.9,101,89,67,30.17,30.03,0,-999,0,0.00
2013-7-20,64.0,57.0,53.0,59.0,28.3,-99.9,101,92,75,30.08,29.96,0,-999,0,0.00
2013-7-21,66.0,56.7,52.0,60.0,-0.3,-99.9,101,94,73,29.98,29.91,0,-999,0,0.00
2013-7-22,72.0,58.1,51.0,62.0,19.7,-99.9,101,90,68,30.06,29.93,0,-999,0,0.00
2013-7-23,73.0,58.8,51.0,60.0,39.3,-99.9,100,86,55,30.08,29.98,0,-999,0,0.00
2013-7-24,69.0,59.8,51.0,59.0,53.9,50.0,96,81,65,30.06,30.00,0,-999,0,0.00
2013-7-25,70.0,57.5,50.0,61.0,53.4,50.0,100,86,66,30.11,30.02,0,-999,0,0.00
2013-7-26,69.0,57.3,50.0,59.0,52.6,50.0,98,85,65,30.16,30.07,0,-999,0,0.00
2013-7-27,71.0,59.9,51.0,58.0,53.3,49.0,97,79,58,30.16,30.00,0,-999,0,0.00
2013-7-28,67.0,58.6,50.0,60.0,52.6,-99.9,97,85,69,30.01,29.94,0,-999,0,0.00
2013-7-29,67.0,56.9,53.0,59.0,54.1,52.0,98,90,70,30.02,29.96,0,-999,0,0.00
2013-7-30,66.0,56.5,53.0,58.0,19.0,-99.9,101,93,74,30.15,29.99,0,-999,0,0.00
2013-7-31,62.0,55.9,52.0,58.0,28.1,-99.9,101,95,82,30.12,29.99,0,-999,0,0.00
2013-8-1,63.0,57.8,53.0,58.0,42.3,-99.9,100,90,77,30.05,30.01,0,-999,0,0.00
2013-8-2,60.0,57.1,55.0,57.0,15.4,-99.9,100,96,86,30.14,30.02,0,-999,0,0.00
2013-8-3,69.0,58.5,54.0,62.0,-12.6,-99.9,101,94,72,30.15,30.07,0,-999,0,0.00
2013-8-4,74.0,60.0,51.0,62.0,23.3,-99.9,100,88,63,30.08,29.96,0,-999,0,0.00
2013-8-5,71.0,61.0,53.0,61.0,54.3,49.0,96,79,60,30.00,29.93,0,-999,0,0.00
2013-8-6,71.0,55.6,51.0,59.0,7.5,-99.9,101,91,63,30.02,29.93,0,-999,0,0.00
2013-8-7,67.0,53.9,53.0,59.0,52.5,52.0,96,94,76,30.01,29.94,0,-999,0,0.00
2013-8-8,74.0,60.1,55.0,58.0,47.1,-99.9,91,76,67,29.98,29.93,0,-999,0,0.00
2013-8-9,71.0,58.8,51.0,62.0,38.9,-99.9,100,87,68,29.96,29.83,0,-999,0,0.00
2013-8-10,71.0,58.8,53.0,62.0,53.7,-99.9,99,89,69,30.00,29.85,0,-999,0,0.00
2013-8-11,66.0,58.0,54.0,60.0,54.6,52.0,98,88,69,30.07,29.98,0,-999,0,0.00
2013-8-12,68.0,57.6,53.0,62.0,12.6,-99.9,101,90,68,30.08,30.01,0,-999,0,0.00
2013-8-13,71.0,59.6,53.0,61.0,38.1,-99.9,100,85,61,30.11,29.95,0,-999,0,0.00
2013-8-14,69.0,58.4,51.0,60.0,40.2,-99.9,100,90,72,29.95,29.91,0,-999,0,0.00
2013-8-15,62.0,57.5,55.0,-99.9,-99.9,-99.9,102,102,100,30.00,29.92,0,-999,0,0.00
2013-8-16,73.0,59.7,51.0,69.0,-39.1,-99.9,103,96,68,30.01,29.96,0,-999,0,0.00
2013-8-17,69.0,60.8,56.0,64.0,57.2,54.0,98,88,70,30.08,29.98,0,-999,0,0.00